Aeronaves

Nuestra Flota

En el Centro de Instrucción de Aeronáutica Civil del Aeroclub de Mar del Plata contamos con 2 aviones Cessna 150 que es un avión biplaza  equipado con tren de aterrizaje fijo en triciclo y ala alta, diseñado originalmente para labores de entrenamiento, turismo y uso personal. 

Nuestros aviones cessna 150 son:

Cessna 150 – LV−LLD,  Biplaza tren triciclo.

Cessna 150 – LV−BPG,  Biplaza tren triciclo. 

Cessna 150 – LV−CLH,  Biplaza tren triciclo.

Cessna 150 – LV−FCB,  Biplaza tren triciclo. 

Cessna 172 LV – GNZ Cuatriplaza tren triciclo.

Además contamos con 1 avión Piper PA 11, un avión biplaza en tándem, con ala alta, diseñado para entrenamiento y perfeccionamiento de los pilotos

Piper PA11 – LV −YJI, Biplaza tren convencional.

 

Facebook Aeroclub Mar del Plata

Informe Climatico
MAR DEL PLATA AR
Metar
SAZM 150200Z 23003KT 170V250 9999 BKN015 BKN025 12/08 Q1020

02:00 UTC

Wind: 230° 3kt

Visibility: 9999 m

Sky: BKN 1500 ft

Temp: 12 deg C / 53.6 deg F

Dewpoint: 8 deg C / 46.4 deg F

Pressure: 1020 hPa

TAF
TAF SAZM 142300Z 1500/1524 23010KT 9999 OVC010 TX12/1500Z TN08/1510Z BECMG 1503/1506 25005KT 5000 BR DZ OVC005 BECMG 1512/1514 18010KT 9000 OVC007 BECMG 1517/1519 16015KT 9999 OVC010